sensor_id;sensor_type;location;lat;lon;timestamp;temperature;humidity
40868;DHT22;26586;50.708;22.412;2023-03-01T00:00:00;12.80;38.40
40868;DHT22;26586;50.708;22.412;2023-03-01T00:02:27;12.70;38.50
40868;DHT22;26586;50.708;22.412;2023-03-01T00:04:53;12.70;38.40
40868;DHT22;26586;50.708;22.412;2023-03-01T00:07:19;12.70;38.80
40868;DHT22;26586;50.708;22.412;2023-03-01T00:09:46;12.70;38.60
40868;DHT22;26586;50.708;22.412;2023-03-01T00:12:12;12.60;38.40
40868;DHT22;26586;50.708;22.412;2023-03-01T00:14:38;12.60;38.20
40868;DHT22;26586;50.708;22.412;2023-03-01T00:17:07;12.60;38.50
40868;DHT22;26586;50.708;22.412;2023-03-01T00:19:34;12.60;38.10
40868;DHT22;26586;50.708;22.412;2023-03-01T00:22:00;12.60;39.00
40868;DHT22;26586;50.708;22.412;2023-03-01T00:24:26;12.60;39.00
40868;DHT22;26586;50.708;22.412;2023-03-01T00:26:54;12.60;38.70
40868;DHT22;26586;50.708;22.412;2023-03-01T00:29:23;12.50;38.30
40868;DHT22;26586;50.708;22.412;2023-03-01T00:31:49;12.50;38.40
40868;DHT22;26586;50.708;22.412;2023-03-01T00:34:16;12.50;38.40
40868;DHT22;26586;50.708;22.412;2023-03-01T00:36:42;12.50;37.90
40868;DHT22;26586;50.708;22.412;2023-03-01T00:39:12;12.50;38.30
40868;DHT22;26586;50.708;22.412;2023-03-01T00:41:39;12.40;37.90
40868;DHT22;26586;50.708;22.412;2023-03-01T00:44:06;12.50;38.30
40868;DHT22;26586;50.708;22.412;2023-03-01T00:46:32;12.40;37.90
40868;DHT22;26586;50.708;22.412;2023-03-01T00:48:59;12.40;39.20
40868;DHT22;26586;50.708;22.412;2023-03-01T00:51:29;12.40;38.20
40868;DHT22;26586;50.708;22.412;2023-03-01T00:53:58;12.40;37.60
40868;DHT22;26586;50.708;22.412;2023-03-01T00:56:25;12.40;38.50
40868;DHT22;26586;50.708;22.412;2023-03-01T00:58:51;12.40;38.80
40868;DHT22;26586;50.708;22.412;2023-03-01T01:01:20;12.30;40.00
40868;DHT22;26586;50.708;22.412;2023-03-01T01:03:55;12.30;39.20
40868;DHT22;26586;50.708;22.412;2023-03-01T01:06:24;12.30;39.20
40868;DHT22;26586;50.708;22.412;2023-03-01T01:08:52;12.30;38.90
40868;DHT22;26586;50.708;22.412;2023-03-01T01:11:19;12.30;39.40
40868;DHT22;26586;50.708;22.412;2023-03-01T01:13:46;12.30;39.10
40868;DHT22;26586;50.708;22.412;2023-03-01T01:16:14;12.20;38.90
40868;DHT22;26586;50.708;22.412;2023-03-01T01:18:40;12.20;38.80
40868;DHT22;26586;50.708;22.412;2023-03-01T01:21:09;12.20;38.90
40868;DHT22;26586;50.708;22.412;2023-03-01T01:23:36;12.20;38.60
40868;DHT22;26586;50.708;22.412;2023-03-01T01:26:15;12.20;38.30
40868;DHT22;26586;50.708;22.412;2023-03-01T01:28:42;12.20;38.70
40868;DHT22;26586;50.708;22.412;2023-03-01T01:31:08;12.20;39.20
40868;DHT22;26586;50.708;22.412;2023-03-01T01:33:34;12.10;39.90
40868;DHT22;26586;50.708;22.412;2023-03-01T01:36:01;12.10;40.70
40868;DHT22;26586;50.708;22.412;2023-03-01T01:38:27;12.10;40.50
40868;DHT22;26586;50.708;22.412;2023-03-01T01:40:53;12.10;40.70
40868;DHT22;26586;50.708;22.412;2023-03-01T01:43:24;12.10;41.50
40868;DHT22;26586;50.708;22.412;2023-03-01T01:45:51;12.10;41.60
40868;DHT22;26586;50.708;22.412;2023-03-01T01:48:24;12.10;42.30
40868;DHT22;26586;50.708;22.412;2023-03-01T01:51:13;12.10;41.60
40868;DHT22;26586;50.708;22.412;2023-03-01T01:53:40;12.10;41.20
40868;DHT22;26586;50.708;22.412;2023-03-01T01:56:09;12.10;41.00
40868;DHT22;26586;50.708;22.412;2023-03-01T01:58:38;12.10;40.40
40868;DHT22;26586;50.708;22.412;2023-03-01T02:01:05;12.10;40.00
40868;DHT22;26586;50.708;22.412;2023-03-01T02:03:33;12.00;39.90
40868;DHT22;26586;50.708;22.412;2023-03-01T02:06:31;12.00;40.20
40868;DHT22;26586;50.708;22.412;2023-03-01T02:09:02;12.00;40.40
40868;DHT22;26586;50.708;22.412;2023-03-01T02:11:31;12.00;40.80
40868;DHT22;26586;50.708;22.412;2023-03-01T02:13:58;11.90;41.00
40868;DHT22;26586;50.708;22.412;2023-03-01T02:16:25;11.90;41.10
40868;DHT22;26586;50.708;22.412;2023-03-01T02:18:52;11.90;40.10
40868;DHT22;26586;50.708;22.412;2023-03-01T02:21:49;11.90;40.20
40868;DHT22;26586;50.708;22.412;2023-03-01T02:24:31;11.90;39.90
40868;DHT22;26586;50.708;22.412;2023-03-01T02:27:00;11.90;40.20
40868;DHT22;26586;50.708;22.412;2023-03-01T02:29:26;11.90;39.20
40868;DHT22;26586;50.708;22.412;2023-03-01T02:31:57;11.90;40.00
40868;DHT22;26586;50.708;22.412;2023-03-01T02:34:26;11.90;40.00
40868;DHT22;26586;50.708;22.412;2023-03-01T02:36:57;11.90;40.70
40868;DHT22;26586;50.708;22.412;2023-03-01T02:39:42;11.90;40.50
40868;DHT22;26586;50.708;22.412;2023-03-01T02:42:12;11.90;40.50
40868;DHT22;26586;50.708;22.412;2023-03-01T02:44:38;11.80;40.50
40868;DHT22;26586;50.708;22.412;2023-03-01T02:47:05;11.80;40.60
40868;DHT22;26586;50.708;22.412;2023-03-01T02:49:34;11.80;41.90
40868;DHT22;26586;50.708;22.412;2023-03-01T02:54:41;11.80;41.90
40868;DHT22;26586;50.708;22.412;2023-03-01T02:57:10;11.80;41.90
40868;DHT22;26586;50.708;22.412;2023-03-01T02:59:37;11.80;41.60
40868;DHT22;26586;50.708;22.412;2023-03-01T03:02:25;11.80;41.50
40868;DHT22;26586;50.708;22.412;2023-03-01T03:05:12;11.70;42.00
40868;DHT22;26586;50.708;22.412;2023-03-01T03:07:41;11.70;42.00
40868;DHT22;26586;50.708;22.412;2023-03-01T03:10:10;11.70;42.50
40868;DHT22;26586;50.708;22.412;2023-03-01T03:12:38;11.70;42.50
40868;DHT22;26586;50.708;22.412;2023-03-01T03:15:05;11.70;41.80
40868;DHT22;26586;50.708;22.412;2023-03-01T03:17:38;11.70;42.80
40868;DHT22;26586;50.708;22.412;2023-03-01T03:20:09;11.70;43.10
40868;DHT22;26586;50.708;22.412;2023-03-01T03:22:39;11.70;43.40
40868;DHT22;26586;50.708;22.412;2023-03-01T03:25:09;11.70;43.40
40868;DHT22;26586;50.708;22.412;2023-03-01T03:27:42;11.70;43.50
40868;DHT22;26586;50.708;22.412;2023-03-01T03:30:13;11.70;43.70
40868;DHT22;26586;50.708;22.412;2023-03-01T03:32:40;11.70;43.60
40868;DHT22;26586;50.708;22.412;2023-03-01T03:35:08;11.70;42.80
40868;DHT22;26586;50.708;22.412;2023-03-01T03:37:40;11.70;43.40
40868;DHT22;26586;50.708;22.412;2023-03-01T03:40:25;11.70;42.80
40868;DHT22;26586;50.708;22.412;2023-03-01T03:42:52;11.70;42.60
40868;DHT22;26586;50.708;22.412;2023-03-01T03:45:18;11.70;43.10
40868;DHT22;26586;50.708;22.412;2023-03-01T03:47:45;11.70;43.00
40868;DHT22;26586;50.708;22.412;2023-03-01T03:50:13;11.70;43.90
40868;DHT22;26586;50.708;22.412;2023-03-01T03:52:40;11.70;43.10
40868;DHT22;26586;50.708;22.412;2023-03-01T03:55:07;11.70;43.00
40868;DHT22;26586;50.708;22.412;2023-03-01T03:57:37;11.70;43.00
40868;DHT22;26586;50.708;22.412;2023-03-01T04:00:05;11.70;42.50
40868;DHT22;26586;50.708;22.412;2023-03-01T04:02:42;11.70;43.00
40868;DHT22;26586;50.708;22.412;2023-03-01T04:05:10;11.70;42.40
40868;DHT22;26586;50.708;22.412;2023-03-01T04:07:38;11.70;42.00
40868;DHT22;26586;50.708;22.412;2023-03-01T04:10:06;11.70;42.90
40868;DHT22;26586;50.708;22.412;2023-03-01T04:12:33;11.70;42.60
40868;DHT22;26586;50.708;22.412;2023-03-01T04:15:00;11.70;43.00
40868;DHT22;26586;50.708;22.412;2023-03-01T04:17:27;11.70;43.20
40868;DHT22;26586;50.708;22.412;2023-03-01T04:19:53;11.80;43.30
40868;DHT22;26586;50.708;22.412;2023-03-01T04:22:20;11.80;45.20
40868;DHT22;26586;50.708;22.412;2023-03-01T04:24:46;11.80;42.80
40868;DHT22;26586;50.708;22.412;2023-03-01T04:27:12;11.70;43.10
40868;DHT22;26586;50.708;22.412;2023-03-01T04:29:38;11.80;43.20
40868;DHT22;26586;50.708;22.412;2023-03-01T04:32:04;11.70;42.80
40868;DHT22;26586;50.708;22.412;2023-03-01T04:34:30;11.80;42.30
40868;DHT22;26586;50.708;22.412;2023-03-01T04:36:57;11.70;41.30
40868;DHT22;26586;50.708;22.412;2023-03-01T04:39:23;11.70;40.20
40868;DHT22;26586;50.708;22.412;2023-03-01T04:41:49;11.70;37.80
40868;DHT22;26586;50.708;22.412;2023-03-01T04:44:15;11.70;43.50
40868;DHT22;26586;50.708;22.412;2023-03-01T04:46:42;11.60;39.10
40868;DHT22;26586;50.708;22.412;2023-03-01T04:49:08;11.60;40.80
40868;DHT22;26586;50.708;22.412;2023-03-01T04:51:34;11.60;41.00
40868;DHT22;26586;50.708;22.412;2023-03-01T04:54:00;11.60;40.40
40868;DHT22;26586;50.708;22.412;2023-03-01T04:56:27;11.60;39.50
40868;DHT22;26586;50.708;22.412;2023-03-01T04:58:53;11.60;39.70
40868;DHT22;26586;50.708;22.412;2023-03-01T05:01:20;11.60;40.10
40868;DHT22;26586;50.708;22.412;2023-03-01T05:03:49;11.60;40.30
40868;DHT22;26586;50.708;22.412;2023-03-01T05:06:16;11.60;39.80
40868;DHT22;26586;50.708;22.412;2023-03-01T05:08:43;11.60;39.20
40868;DHT22;26586;50.708;22.412;2023-03-01T05:11:10;11.60;39.70
40868;DHT22;26586;50.708;22.412;2023-03-01T05:13:38;11.60;39.20
40868;DHT22;26586;50.708;22.412;2023-03-01T05:16:06;11.60;39.60
40868;DHT22;26586;50.708;22.412;2023-03-01T05:18:37;11.60;41.80
40868;DHT22;26586;50.708;22.412;2023-03-01T05:21:06;11.60;40.40
40868;DHT22;26586;50.708;22.412;2023-03-01T05:23:33;11.60;40.70
40868;DHT22;26586;50.708;22.412;2023-03-01T05:26:01;11.60;41.10
40868;DHT22;26586;50.708;22.412;2023-03-01T05:28:30;11.60;40.20
40868;DHT22;26586;50.708;22.412;2023-03-01T05:30:57;11.60;41.50
40868;DHT22;26586;50.708;22.412;2023-03-01T05:33:24;11.60;39.50
40868;DHT22;26586;50.708;22.412;2023-03-01T05:35:51;11.70;39.80
40868;DHT22;26586;50.708;22.412;2023-03-01T05:38:19;11.70;38.70
40868;DHT22;26586;50.708;22.412;2023-03-01T05:40:48;11.70;39.30
40868;DHT22;26586;50.708;22.412;2023-03-01T05:43:16;11.70;38.40
40868;DHT22;26586;50.708;22.412;2023-03-01T05:45:42;11.60;38.20
40868;DHT22;26586;50.708;22.412;2023-03-01T05:48:10;11.70;37.30
40868;DHT22;26586;50.708;22.412;2023-03-01T05:50:39;11.70;36.90
40868;DHT22;26586;50.708;22.412;2023-03-01T05:53:17;11.60;36.70
40868;DHT22;26586;50.708;22.412;2023-03-01T05:55:44;11.60;36.00
40868;DHT22;26586;50.708;22.412;2023-03-01T05:58:15;11.60;36.40
40868;DHT22;26586;50.708;22.412;2023-03-01T06:00:42;11.60;36.30
40868;DHT22;26586;50.708;22.412;2023-03-01T06:03:11;11.60;36.80
40868;DHT22;26586;50.708;22.412;2023-03-01T06:05:38;11.60;37.20
40868;DHT22;26586;50.708;22.412;2023-03-01T06:08:05;11.60;36.40
40868;DHT22;26586;50.708;22.412;2023-03-01T06:10:31;11.50;36.00
40868;DHT22;26586;50.708;22.412;2023-03-01T06:12:58;11.50;36.40
40868;DHT22;26586;50.708;22.412;2023-03-01T06:15:25;11.50;37.20
40868;DHT22;26586;50.708;22.412;2023-03-01T06:17:52;11.50;37.80
40868;DHT22;26586;50.708;22.412;2023-03-01T06:20:23;11.50;38.30
40868;DHT22;26586;50.708;22.412;2023-03-01T06:22:50;11.50;39.10
40868;DHT22;26586;50.708;22.412;2023-03-01T06:25:20;11.50;38.80
40868;DHT22;26586;50.708;22.412;2023-03-01T06:27:46;11.50;38.50
40868;DHT22;26586;50.708;22.412;2023-03-01T06:30:15;11.50;38.80
40868;DHT22;26586;50.708;22.412;2023-03-01T06:32:41;11.50;38.50
40868;DHT22;26586;50.708;22.412;2023-03-01T06:35:12;11.60;40.10
40868;DHT22;26586;50.708;22.412;2023-03-01T06:37:38;11.60;41.30
40868;DHT22;26586;50.708;22.412;2023-03-01T06:40:06;11.60;43.10
40868;DHT22;26586;50.708;22.412;2023-03-01T06:42:38;11.70;44.00
40868;DHT22;26586;50.708;22.412;2023-03-01T06:45:06;11.80;44.90
40868;DHT22;26586;50.708;22.412;2023-03-01T06:47:33;11.90;46.00
40868;DHT22;26586;50.708;22.412;2023-03-01T06:50:00;11.90;45.50
40868;DHT22;26586;50.708;22.412;2023-03-01T06:52:27;12.00;46.30
40868;DHT22;26586;50.708;22.412;2023-03-01T06:54:53;12.10;49.10
40868;DHT22;26586;50.708;22.412;2023-03-01T06:57:19;12.20;51.60
40868;DHT22;26586;50.708;22.412;2023-03-01T06:59:47;12.30;49.20
40868;DHT22;26586;50.708;22.412;2023-03-01T07:02:14;12.30;51.60
40868;DHT22;26586;50.708;22.412;2023-03-01T07:04:41;12.40;51.30
40868;DHT22;26586;50.708;22.412;2023-03-01T07:07:07;12.50;50.00
40868;DHT22;26586;50.708;22.412;2023-03-01T07:09:34;12.60;48.20
40868;DHT22;26586;50.708;22.412;2023-03-01T07:12:00;12.60;48.40
40868;DHT22;26586;50.708;22.412;2023-03-01T07:14:27;12.70;49.40
40868;DHT22;26586;50.708;22.412;2023-03-01T07:16:53;12.80;47.80
40868;DHT22;26586;50.708;22.412;2023-03-01T07:19:21;12.80;49.60
40868;DHT22;26586;50.708;22.412;2023-03-01T07:21:47;12.90;49.80
40868;DHT22;26586;50.708;22.412;2023-03-01T07:24:13;13.00;49.10
40868;DHT22;26586;50.708;22.412;2023-03-01T07:26:40;13.00;48.80
40868;DHT22;26586;50.708;22.412;2023-03-01T07:29:08;13.10;49.70
40868;DHT22;26586;50.708;22.412;2023-03-01T07:31:35;13.20;49.30
40868;DHT22;26586;50.708;22.412;2023-03-01T07:34:02;13.20;49.40
40868;DHT22;26586;50.708;22.412;2023-03-01T07:36:28;13.40;49.50
40868;DHT22;26586;50.708;22.412;2023-03-01T07:38:55;13.40;47.60
40868;DHT22;26586;50.708;22.412;2023-03-01T07:41:21;13.60;50.30
40868;DHT22;26586;50.708;22.412;2023-03-01T07:43:48;13.60;49.70
40868;DHT22;26586;50.708;22.412;2023-03-01T07:46:14;13.70;48.80
40868;DHT22;26586;50.708;22.412;2023-03-01T07:48:40;13.80;47.10
40868;DHT22;26586;50.708;22.412;2023-03-01T07:51:07;13.90;47.40
40868;DHT22;26586;50.708;22.412;2023-03-01T07:53:34;14.00;45.40
40868;DHT22;26586;50.708;22.412;2023-03-01T07:56:08;14.10;46.70
40868;DHT22;26586;50.708;22.412;2023-03-01T07:58:36;14.10;40.40
40868;DHT22;26586;50.708;22.412;2023-03-01T08:01:07;14.20;41.90
40868;DHT22;26586;50.708;22.412;2023-03-01T08:03:34;14.30;44.10
40868;DHT22;26586;50.708;22.412;2023-03-01T08:06:03;14.40;41.90
40868;DHT22;26586;50.708;22.412;2023-03-01T08:08:30;14.50;44.40
40868;DHT22;26586;50.708;22.412;2023-03-01T08:10:58;14.60;42.00
40868;DHT22;26586;50.708;22.412;2023-03-01T08:13:25;14.70;41.00
40868;DHT22;26586;50.708;22.412;2023-03-01T08:15:52;14.70;44.70
40868;DHT22;26586;50.708;22.412;2023-03-01T08:18:19;14.90;46.10
40868;DHT22;26586;50.708;22.412;2023-03-01T08:20:45;15.00;41.30
40868;DHT22;26586;50.708;22.412;2023-03-01T08:23:12;15.10;40.40
40868;DHT22;26586;50.708;22.412;2023-03-01T08:25:39;15.20;39.80
40868;DHT22;26586;50.708;22.412;2023-03-01T08:28:05;15.30;38.90
40868;DHT22;26586;50.708;22.412;2023-03-01T08:30:32;15.40;39.20
40868;DHT22;26586;50.708;22.412;2023-03-01T08:32:58;15.50;38.50
40868;DHT22;26586;50.708;22.412;2023-03-01T08:35:24;15.60;36.50
40868;DHT22;26586;50.708;22.412;2023-03-01T08:37:50;15.70;34.40
40868;DHT22;26586;50.708;22.412;2023-03-01T08:40:16;15.80;35.20
40868;DHT22;26586;50.708;22.412;2023-03-01T08:42:43;15.90;37.40
40868;DHT22;26586;50.708;22.412;2023-03-01T08:45:09;16.00;35.00
40868;DHT22;26586;50.708;22.412;2023-03-01T08:47:36;16.10;44.20
40868;DHT22;26586;50.708;22.412;2023-03-01T08:50:04;16.20;38.20
40868;DHT22;26586;50.708;22.412;2023-03-01T08:52:32;16.40;35.70
40868;DHT22;26586;50.708;22.412;2023-03-01T08:54:58;16.50;36.90
40868;DHT22;26586;50.708;22.412;2023-03-01T08:57:27;16.60;33.60
40868;DHT22;26586;50.708;22.412;2023-03-01T08:59:53;16.70;34.20
40868;DHT22;26586;50.708;22.412;2023-03-01T09:02:22;16.70;30.90
40868;DHT22;26586;50.708;22.412;2023-03-01T09:04:48;16.80;31.40
40868;DHT22;26586;50.708;22.412;2023-03-01T09:07:14;16.90;32.10
40868;DHT22;26586;50.708;22.412;2023-03-01T09:09:40;17.00;31.70
40868;DHT22;26586;50.708;22.412;2023-03-01T09:12:07;17.00;30.30
40868;DHT22;26586;50.708;22.412;2023-03-01T09:14:33;17.10;30.10
40868;DHT22;26586;50.708;22.412;2023-03-01T09:16:59;17.20;39.90
40868;DHT22;26586;50.708;22.412;2023-03-01T09:19:28;17.20;34.80
40868;DHT22;26586;50.708;22.412;2023-03-01T09:21:55;17.40;31.40
40868;DHT22;26586;50.708;22.412;2023-03-01T09:24:23;17.40;31.50
40868;DHT22;26586;50.708;22.412;2023-03-01T09:26:50;17.40;31.70
40868;DHT22;26586;50.708;22.412;2023-03-01T09:29:18;17.50;30.50
40868;DHT22;26586;50.708;22.412;2023-03-01T09:31:45;17.50;30.90
40868;DHT22;26586;50.708;22.412;2023-03-01T09:34:11;17.60;29.80
40868;DHT22;26586;50.708;22.412;2023-03-01T09:36:37;17.60;29.80
40868;DHT22;26586;50.708;22.412;2023-03-01T09:39:04;17.60;30.00
40868;DHT22;26586;50.708;22.412;2023-03-01T09:46:47;17.70;32.10
40868;DHT22;26586;50.708;22.412;2023-03-01T09:49:40;17.80;31.10
40868;DHT22;26586;50.708;22.412;2023-03-01T09:55:01;17.90;30.00
40868;DHT22;26586;50.708;22.412;2023-03-01T10:02:51;17.90;30.60
40868;DHT22;26586;50.708;22.412;2023-03-01T10:05:47;17.90;30.50
40868;DHT22;26586;50.708;22.412;2023-03-01T10:08:42;17.90;30.80
40868;DHT22;26586;50.708;22.412;2023-03-01T10:11:34;17.90;31.10
40868;DHT22;26586;50.708;22.412;2023-03-01T10:16:46;18.00;31.60
40868;DHT22;26586;50.708;22.412;2023-03-01T10:19:23;18.00;31.40
40868;DHT22;26586;50.708;22.412;2023-03-01T10:21:51;18.10;31.30
40868;DHT22;26586;50.708;22.412;2023-03-01T10:24:19;18.10;31.40
40868;DHT22;26586;50.708;22.412;2023-03-01T10:27:09;18.10;31.30
40868;DHT22;26586;50.708;22.412;2023-03-01T10:30:02;18.10;34.50
40868;DHT22;26586;50.708;22.412;2023-03-01T10:32:31;18.20;36.00
40868;DHT22;26586;50.708;22.412;2023-03-01T10:34:58;18.20;34.70
40868;DHT22;26586;50.708;22.412;2023-03-01T10:37:25;18.20;33.00
40868;DHT22;26586;50.708;22.412;2023-03-01T10:39:58;18.20;32.60
40868;DHT22;26586;50.708;22.412;2023-03-01T10:42:29;18.20;32.20
40868;DHT22;26586;50.708;22.412;2023-03-01T10:44:57;18.20;32.10
40868;DHT22;26586;50.708;22.412;2023-03-01T10:47:26;18.20;32.10
40868;DHT22;26586;50.708;22.412;2023-03-01T10:50:03;18.20;32.10
40868;DHT22;26586;50.708;22.412;2023-03-01T10:52:37;18.20;32.30
40868;DHT22;26586;50.708;22.412;2023-03-01T10:55:42;18.20;32.10
40868;DHT22;26586;50.708;22.412;2023-03-01T10:58:20;18.20;32.10
40868;DHT22;26586;50.708;22.412;2023-03-01T11:00:53;18.20;32.00
40868;DHT22;26586;50.708;22.412;2023-03-01T11:03:26;18.20;32.10
40868;DHT22;26586;50.708;22.412;2023-03-01T11:05:59;18.20;32.00
40868;DHT22;26586;50.708;22.412;2023-03-01T11:08:42;18.10;31.70
40868;DHT22;26586;50.708;22.412;2023-03-01T11:11:33;18.20;32.20
40868;DHT22;26586;50.708;22.412;2023-03-01T11:14:06;18.20;32.30
40868;DHT22;26586;50.708;22.412;2023-03-01T11:16:40;18.20;32.30
40868;DHT22;26586;50.708;22.412;2023-03-01T11:24:17;18.20;31.70
40868;DHT22;26586;50.708;22.412;2023-03-01T11:26:50;18.20;31.50
40868;DHT22;26586;50.708;22.412;2023-03-01T11:29:32;18.20;31.60
40868;DHT22;26586;50.708;22.412;2023-03-01T11:32:03;18.20;32.20
40868;DHT22;26586;50.708;22.412;2023-03-01T11:34:48;18.20;31.70
40868;DHT22;26586;50.708;22.412;2023-03-01T11:40:27;18.20;31.50
40868;DHT22;26586;50.708;22.412;2023-03-01T11:51:52;18.10;31.80
40868;DHT22;26586;50.708;22.412;2023-03-01T12:20:11;18.00;31.90
40868;DHT22;26586;50.708;22.412;2023-03-01T12:22:46;18.00;32.20
40868;DHT22;26586;50.708;22.412;2023-03-01T12:47:33;17.90;32.30
40868;DHT22;26586;50.708;22.412;2023-03-01T12:52:42;17.90;31.80
40868;DHT22;26586;50.708;22.412;2023-03-01T12:55:37;17.90;31.70
40868;DHT22;26586;50.708;22.412;2023-03-01T12:58:38;17.90;31.80
40868;DHT22;26586;50.708;22.412;2023-03-01T13:04:17;18.00;31.40
40868;DHT22;26586;50.708;22.412;2023-03-01T13:11:57;18.10;31.60
40868;DHT22;26586;50.708;22.412;2023-03-01T13:16:51;18.10;31.80
40868;DHT22;26586;50.708;22.412;2023-03-01T13:19:23;18.10;36.20
40868;DHT22;26586;50.708;22.412;2023-03-01T13:21:53;18.10;33.30
40868;DHT22;26586;50.708;22.412;2023-03-01T13:29:46;18.20;33.10
40868;DHT22;26586;50.708;22.412;2023-03-01T13:32:33;18.20;33.70
40868;DHT22;26586;50.708;22.412;2023-03-01T13:35:44;18.20;40.70
40868;DHT22;26586;50.708;22.412;2023-03-01T13:38:46;18.20;37.80
40868;DHT22;26586;50.708;22.412;2023-03-01T13:41:31;18.30;41.00
40868;DHT22;26586;50.708;22.412;2023-03-01T13:46:50;18.30;35.30
40868;DHT22;26586;50.708;22.412;2023-03-01T13:49:25;18.30;37.00
40868;DHT22;26586;50.708;22.412;2023-03-01T13:51:52;18.30;40.00
40868;DHT22;26586;50.708;22.412;2023-03-01T13:54:29;18.30;39.20
40868;DHT22;26586;50.708;22.412;2023-03-01T13:56:58;18.40;38.50
40868;DHT22;26586;50.708;22.412;2023-03-01T13:59:25;18.40;39.00
40868;DHT22;26586;50.708;22.412;2023-03-01T14:01:54;18.40;41.40
40868;DHT22;26586;50.708;22.412;2023-03-01T14:04:25;18.40;42.20
40868;DHT22;26586;50.708;22.412;2023-03-01T14:07:08;18.40;41.60
40868;DHT22;26586;50.708;22.412;2023-03-01T14:09:39;18.50;43.20
40868;DHT22;26586;50.708;22.412;2023-03-01T14:20:29;18.40;38.90
40868;DHT22;26586;50.708;22.412;2023-03-01T14:22:59;18.50;41.00
40868;DHT22;26586;50.708;22.412;2023-03-01T14:25:36;18.50;43.40
40868;DHT22;26586;50.708;22.412;2023-03-01T14:30:37;18.40;37.00
40868;DHT22;26586;50.708;22.412;2023-03-01T14:33:17;18.40;38.10
40868;DHT22;26586;50.708;22.412;2023-03-01T14:35:54;18.40;39.00
40868;DHT22;26586;50.708;22.412;2023-03-01T14:40:58;18.40;42.10
40868;DHT22;26586;50.708;22.412;2023-03-01T14:43:26;18.40;42.00
40868;DHT22;26586;50.708;22.412;2023-03-01T14:45:53;18.40;39.20
40868;DHT22;26586;50.708;22.412;2023-03-01T14:48:19;18.40;36.50
40868;DHT22;26586;50.708;22.412;2023-03-01T14:50:45;18.40;37.10
40868;DHT22;26586;50.708;22.412;2023-03-01T14:53:24;18.40;36.50
40868;DHT22;26586;50.708;22.412;2023-03-01T14:55:56;18.40;38.00
40868;DHT22;26586;50.708;22.412;2023-03-01T14:58:26;18.30;38.90
40868;DHT22;26586;50.708;22.412;2023-03-01T15:00:58;18.30;39.60
40868;DHT22;26586;50.708;22.412;2023-03-01T15:03:38;18.30;37.00
40868;DHT22;26586;50.708;22.412;2023-03-01T15:06:07;18.30;35.10
40868;DHT22;26586;50.708;22.412;2023-03-01T15:08:35;18.30;34.90
40868;DHT22;26586;50.708;22.412;2023-03-01T15:11:05;18.20;36.00
40868;DHT22;26586;50.708;22.412;2023-03-01T15:13:33;18.30;37.50
40868;DHT22;26586;50.708;22.412;2023-03-01T15:16:09;18.20;36.30
40868;DHT22;26586;50.708;22.412;2023-03-01T15:18:38;18.20;37.70
40868;DHT22;26586;50.708;22.412;2023-03-01T15:21:16;18.20;37.80
40868;DHT22;26586;50.708;22.412;2023-03-01T15:23:51;18.20;38.60
40868;DHT22;26586;50.708;22.412;2023-03-01T15:27:13;18.20;38.40
40868;DHT22;26586;50.708;22.412;2023-03-01T15:29:34;18.20;38.40
40868;DHT22;26586;50.708;22.412;2023-03-01T15:34:49;18.20;38.50
40868;DHT22;26586;50.708;22.412;2023-03-01T15:40:01;18.20;39.20
40868;DHT22;26586;50.708;22.412;2023-03-01T15:47:36;18.10;39.30
40868;DHT22;26586;50.708;22.412;2023-03-01T15:50:05;18.10;39.00
40868;DHT22;26586;50.708;22.412;2023-03-01T15:52:35;18.10;39.90
40868;DHT22;26586;50.708;22.412;2023-03-01T15:57:46;18.10;39.00
40868;DHT22;26586;50.708;22.412;2023-03-01T16:00:14;18.10;39.60
40868;DHT22;26586;50.708;22.412;2023-03-01T16:02:42;18.10;39.60
40868;DHT22;26586;50.708;22.412;2023-03-01T16:05:12;18.00;38.40
40868;DHT22;26586;50.708;22.412;2023-03-01T16:07:41;18.10;38.70
40868;DHT22;26586;50.708;22.412;2023-03-01T16:10:07;18.00;38.00
40868;DHT22;26586;50.708;22.412;2023-03-01T16:12:33;18.00;38.10
40868;DHT22;26586;50.708;22.412;2023-03-01T16:14:59;18.00;38.30
40868;DHT22;26586;50.708;22.412;2023-03-01T16:17:26;18.00;38.40
40868;DHT22;26586;50.708;22.412;2023-03-01T16:19:52;17.90;38.80
40868;DHT22;26586;50.708;22.412;2023-03-01T16:22:18;18.00;40.60
40868;DHT22;26586;50.708;22.412;2023-03-01T16:24:50;17.90;38.00
40868;DHT22;26586;50.708;22.412;2023-03-01T16:27:16;17.90;37.50
40868;DHT22;26586;50.708;22.412;2023-03-01T16:29:42;17.80;37.30
40868;DHT22;26586;50.708;22.412;2023-03-01T16:32:09;17.80;37.30
40868;DHT22;26586;50.708;22.412;2023-03-01T16:34:37;17.80;37.40
40868;DHT22;26586;50.708;22.412;2023-03-01T16:37:07;17.80;37.50
40868;DHT22;26586;50.708;22.412;2023-03-01T16:39:38;17.80;37.50
40868;DHT22;26586;50.708;22.412;2023-03-01T16:42:04;17.80;37.70
40868;DHT22;26586;50.708;22.412;2023-03-01T16:44:30;17.80;37.30
40868;DHT22;26586;50.708;22.412;2023-03-01T16:46:56;17.70;37.40
40868;DHT22;26586;50.708;22.412;2023-03-01T16:49:23;17.70;37.40
40868;DHT22;26586;50.708;22.412;2023-03-01T16:51:49;17.60;37.60
40868;DHT22;26586;50.708;22.412;2023-03-01T16:54:15;17.60;37.90
40868;DHT22;26586;50.708;22.412;2023-03-01T16:56:41;17.70;37.60
40868;DHT22;26586;50.708;22.412;2023-03-01T16:59:07;17.60;37.20
40868;DHT22;26586;50.708;22.412;2023-03-01T17:01:34;17.60;37.30
40868;DHT22;26586;50.708;22.412;2023-03-01T17:04:05;17.60;37.10
40868;DHT22;26586;50.708;22.412;2023-03-01T17:06:31;17.60;36.70
40868;DHT22;26586;50.708;22.412;2023-03-01T17:08:58;17.50;36.80
40868;DHT22;26586;50.708;22.412;2023-03-01T17:11:25;17.50;36.90
40868;DHT22;26586;50.708;22.412;2023-03-01T17:13:51;17.50;36.50
40868;DHT22;26586;50.708;22.412;2023-03-01T17:16:19;17.50;35.80
40868;DHT22;26586;50.708;22.412;2023-03-01T17:18:45;17.50;35.70
40868;DHT22;26586;50.708;22.412;2023-03-01T17:21:12;17.50;35.50
40868;DHT22;26586;50.708;22.412;2023-03-01T17:23:41;17.50;35.60
40868;DHT22;26586;50.708;22.412;2023-03-01T17:26:07;17.40;35.70
40868;DHT22;26586;50.708;22.412;2023-03-01T17:28:35;17.40;36.10
40868;DHT22;26586;50.708;22.412;2023-03-01T17:31:04;17.40;34.80
40868;DHT22;26586;50.708;22.412;2023-03-01T17:33:31;17.40;34.30
40868;DHT22;26586;50.708;22.412;2023-03-01T17:35:58;17.30;34.60
40868;DHT22;26586;50.708;22.412;2023-03-01T17:38:24;17.30;35.10
40868;DHT22;26586;50.708;22.412;2023-03-01T17:40:51;17.30;35.40
40868;DHT22;26586;50.708;22.412;2023-03-01T17:43:17;17.20;35.30